4XCWC LLHZ-LLHZ

Flight info

Callsign 4XCWC
Flight time 0h 35m
Altitude 800
Route CVFR
Aircraft C172/L-VD/A

Departure

Time 2026-04-15 18:45
Airport Herzliya Airport (LLHZ)

Arrival

Time 2026-04-15 19:20
Airport Herzliya Airport (LLHZ)
Time Latitude Longitude Altitude Speed Heading
2026-04-15 18:40 32.17881 34.83779 123 ft 0 kts 110°
2026-04-15 18:43 32.17890 34.83816 125 ft 2 kts 90°
2026-04-15 18:44 32.17890 34.83818 125 ft 0 kts 87°
2026-04-15 18:44 32.17916 34.83830 128 ft 9 kts 345°
2026-04-15 18:44 32.17950 34.83730 123 ft 27 kts 289°
2026-04-15 18:44 32.18074 34.83313 107 ft 76 kts 293°
2026-04-15 18:45 32.18290 34.82727 300 ft 76 kts 324°
2026-04-15 18:45 32.18793 34.82768 465 ft 83 kts 24°
2026-04-15 18:45 32.19343 34.83061 602 ft 85 kts 42°
2026-04-15 18:45 32.19413 34.83688 728 ft 95 kts 108°
2026-04-15 18:46 32.19097 34.84464 738 ft 111 kts 114°
2026-04-15 18:46 32.18696 34.85251 851 ft 113 kts 133°
2026-04-15 18:46 32.17918 34.85301 695 ft 123 kts 198°
2026-04-15 18:46 32.17538 34.84749 593 ft 81 kts 292°
2026-04-15 18:47 32.17807 34.84173 278 ft 80 kts 295°
2026-04-15 18:47 32.17986 34.83621 117 ft 59 kts 289°
2026-04-15 18:47 32.18131 34.83107 105 ft 83 kts 293°
2026-04-15 18:47 32.18430 34.82626 342 ft 72 kts 358°
2026-04-15 18:48 32.18926 34.82720 570 ft 75 kts 17°
2026-04-15 18:48 32.19412 34.83034 647 ft 88 kts 64°
2026-04-15 18:48 32.19262 34.83782 651 ft 110 kts 110°
2026-04-15 18:48 32.18929 34.84631 740 ft 116 kts 110°
2026-04-15 18:49 32.18430 34.85269 695 ft 109 kts 170°
2026-04-15 18:49 32.17707 34.85157 543 ft 95 kts 218°
2026-04-15 18:49 32.17700 34.84514 367 ft 82 kts 298°
2026-04-15 18:49 32.17882 34.83948 152 ft 66 kts 295°
2026-04-15 18:50 32.18019 34.83496 113 ft 66 kts 294°
2026-04-15 18:50 32.18198 34.82892 272 ft 73 kts 303°
2026-04-15 18:50 32.18636 34.82754 418 ft 80 kts 17°
2026-04-15 18:50 32.19168 34.82990 578 ft 81 kts 44°
2026-04-15 18:51 32.19177 34.83654 641 ft 101 kts 108°
2026-04-15 18:51 32.18841 34.84454 713 ft 114 kts 111°
2026-04-15 18:51 32.18456 34.85203 691 ft 104 kts 144°
2026-04-15 18:51 32.17798 34.85151 532 ft 96 kts 226°
2026-04-15 18:52 32.17700 34.84456 337 ft 87 kts 291°
2026-04-15 18:52 32.17913 34.83837 140 ft 71 kts 295°
2026-04-15 18:52 32.18079 34.83306 107 ft 77 kts 290°
2026-04-15 18:52 32.18314 34.82728 296 ft 77 kts 331°
2026-04-15 18:53 32.18766 34.82741 362 ft 86 kts 16°
2026-04-15 18:53 32.19085 34.82842 435 ft 88 kts 21°
2026-04-15 18:53 32.19257 34.83420 632 ft 98 kts 104°
2026-04-15 18:53 32.18945 34.84227 650 ft 112 kts 111°
2026-04-15 18:54 32.18632 34.85039 635 ft 107 kts 110°
2026-04-15 18:54 32.18089 34.85388 632 ft 96 kts 196°
2026-04-15 18:54 32.17580 34.84918 475 ft 86 kts 252°
2026-04-15 18:54 32.17726 34.84377 309 ft 72 kts 301°
2026-04-15 18:55 32.17917 34.83838 128 ft 67 kts 294°
2026-04-15 18:55 32.18066 34.83315 141 ft 76 kts 297°
2026-04-15 18:55 32.18314 34.82768 318 ft 76 kts 334°
2026-04-15 18:55 32.18841 34.82797 428 ft 82 kts 14°
2026-04-15 18:56 32.19335 34.83120 516 ft 97 kts 65°
2026-04-15 18:56 32.19156 34.83998 515 ft 119 kts 109°
2026-04-15 18:56 32.18824 34.84854 484 ft 111 kts 112°
2026-04-15 18:56 32.18337 34.85383 527 ft 95 kts 181°
2026-04-15 18:57 32.17682 34.85162 506 ft 95 kts 228°
2026-04-15 18:57 32.17708 34.84492 391 ft 83 kts 296°
2026-04-15 18:57 32.17900 34.83894 144 ft 71 kts 296°
2026-04-15 18:57 32.18053 34.83381 108 ft 74 kts 289°
2026-04-15 18:58 32.18259 34.82774 301 ft 74 kts 320°
2026-04-15 18:58 32.18761 34.82736 388 ft 82 kts 18°
2026-04-15 18:58 32.19279 34.83014 580 ft 84 kts 50°
2026-04-15 18:58 32.19258 34.83729 656 ft 104 kts 110°
2026-04-15 18:59 32.18925 34.84535 746 ft 108 kts 114°
2026-04-15 18:59 32.18519 34.85219 779 ft 104 kts 155°
2026-04-15 18:59 32.17766 34.85050 615 ft 123 kts 200°
2026-04-15 18:59 32.17629 34.84288 481 ft 120 kts 310°
2026-04-15 19:00 32.18008 34.83520 122 ft 89 kts 299°
2026-04-15 19:00 32.18177 34.82919 130 ft 80 kts 294°
2026-04-15 19:00 32.18565 34.82666 309 ft 74 kts 15°
2026-04-15 19:00 32.19030 34.82964 473 ft 80 kts 47°
2026-04-15 19:01 32.19108 34.83648 543 ft 106 kts 103°
2026-04-15 19:01 32.18837 34.84483 519 ft 102 kts 110°
2026-04-15 19:01 32.18539 34.85170 459 ft 87 kts 127°
2026-04-15 19:01 32.17970 34.85207 486 ft 86 kts 200°
2026-04-15 19:02 32.17669 34.84680 481 ft 84 kts 282°
2026-04-15 19:02 32.17850 34.84063 215 ft 77 kts 293°
2026-04-15 19:02 32.18010 34.83505 114 ft 75 kts 288°
2026-04-15 19:02 32.18136 34.83082 220 ft 79 kts 297°
2026-04-15 19:03 32.18509 34.82745 361 ft 78 kts 16°
2026-04-15 19:03 32.19065 34.83005 452 ft 91 kts 26°
2026-04-15 19:03 32.19432 34.83528 689 ft 93 kts 95°
2026-04-15 19:04 32.19105 34.84319 641 ft 117 kts 113°
2026-04-15 19:04 32.18743 34.85187 633 ft 109 kts 115°
2026-04-15 19:04 32.18203 34.85600 572 ft 102 kts 187°
2026-04-15 19:04 32.17629 34.85162 458 ft 92 kts 245°
2026-04-15 19:05 32.17691 34.84533 315 ft 68 kts 296°
2026-04-15 19:05 32.17863 34.83992 182 ft 73 kts 295°
2026-04-15 19:05 32.18030 34.83466 111 ft 61 kts 294°
2026-04-15 19:05 32.18199 34.82874 198 ft 79 kts 297°
2026-04-15 19:06 32.18631 34.82637 363 ft 76 kts 14°
2026-04-15 19:06 32.19147 34.82798 547 ft 79 kts 17°
2026-04-15 19:06 32.19707 34.82968 646 ft 90 kts 18°
2026-04-15 19:06 32.20325 34.83166 773 ft 94 kts 19°
2026-04-15 19:07 32.20954 34.83370 982 ft 90 kts 23°
2026-04-15 19:07 32.21567 34.83538 1169 ft 92 kts 23°
2026-04-15 19:07 32.22200 34.83640 1369 ft 92 kts 19°
2026-04-15 19:07 32.22859 34.83725 1463 ft 98 kts 20°
2026-04-15 19:08 32.23443 34.83809 1518 ft 104 kts 20°
2026-04-15 19:09 32.23744 34.83846 1585 ft 102 kts 18°
2026-04-15 19:09 32.23850 34.83857 1616 ft 102 kts 17°
2026-04-15 19:09 32.24593 34.83942 1622 ft 110 kts 19°
2026-04-15 19:10 32.25353 34.84067 1622 ft 114 kts 20°
2026-04-15 19:10 32.26131 34.84221 1677 ft 114 kts 23°
2026-04-15 19:10 32.26908 34.84441 1728 ft 113 kts 28°
2026-04-15 19:10 32.27469 34.84877 1861 ft 89 kts 83°
2026-04-15 19:11 32.27044 34.85352 1820 ft 117 kts 174°
2026-04-15 19:11 32.26182 34.85003 1547 ft 137 kts 193°
2026-04-15 19:11 32.25306 34.84604 1302 ft 133 kts 191°
2026-04-15 19:11 32.24422 34.84297 1105 ft 132 kts 187°
2026-04-15 19:12 32.23547 34.84018 944 ft 127 kts 189°
2026-04-15 19:12 32.22734 34.83834 864 ft 116 kts 186°
2026-04-15 19:12 32.21934 34.83665 715 ft 116 kts 184°
2026-04-15 19:12 32.21144 34.83521 720 ft 119 kts 182°
2026-04-15 19:13 32.20544 34.83438 759 ft 123 kts 178°
2026-04-15 19:14 32.19900 34.83444 805 ft 124 kts 173°
2026-04-15 19:14 32.19138 34.83823 684 ft 125 kts 133°
2026-04-15 19:14 32.18668 34.84605 547 ft 107 kts 103°
2026-04-15 19:14 32.18366 34.85332 456 ft 98 kts 140°
2026-04-15 19:15 32.18201 34.85421 451 ft 96 kts 163°
2026-04-15 19:15 32.18019 34.85435 413 ft 97 kts 188°
2026-04-15 19:16 32.17725 34.85156 458 ft 86 kts 264°
2026-04-15 19:16 32.17775 34.84388 319 ft 84 kts 289°
2026-04-15 19:17 32.17924 34.83807 138 ft 66 kts 292°
2026-04-15 19:17 32.18060 34.83379 108 ft 58 kts 286°
2026-04-15 19:17 32.18228 34.82813 208 ft 74 kts 311°
2026-04-15 19:17 32.18689 34.82739 335 ft 79 kts 22°
2026-04-15 19:18 32.19009 34.82891 423 ft 84 kts 20°
2026-04-15 19:18 32.19536 34.83268 573 ft 94 kts 62°
2026-04-15 19:19 32.19434 34.84058 660 ft 110 kts 115°
2026-04-15 19:19 32.18934 34.84782 642 ft 104 kts 128°
2026-04-15 19:19 32.18442 34.85286 535 ft 89 kts 162°
2026-04-15 19:19 32.17806 34.85184 444 ft 91 kts 200°
2026-04-15 19:20 32.17528 34.84683 397 ft 77 kts 297°
2026-04-15 19:20 32.17777 34.84201 232 ft 68 kts 304°
2026-04-15 19:20 32.17955 34.83713 122 ft 53 kts 288°
2026-04-15 19:20 32.17934 34.83533 114 ft 4 kts 193°
2026-04-15 19:21 32.17931 34.83533 114 ft 0 kts 168°